sensor_id;sensor_type;location;lat;lon;timestamp;temperature;humidity
49385;DHT22;36795;45.028;38.968;2023-04-25T00:01:04;13.50;85.60
49385;DHT22;36795;45.028;38.968;2023-04-25T00:04:16;13.50;85.90
49385;DHT22;36795;45.028;38.968;2023-04-25T00:07:30;13.50;85.50
49385;DHT22;36795;45.028;38.968;2023-04-25T00:10:40;13.50;85.30
49385;DHT22;36795;45.028;38.968;2023-04-25T00:13:42;13.40;85.20
49385;DHT22;36795;45.028;38.968;2023-04-25T00:16:37;13.30;84.80
49385;DHT22;36795;45.028;38.968;2023-04-25T00:19:37;13.30;84.30
49385;DHT22;36795;45.028;38.968;2023-04-25T00:22:47;13.20;84.50
49385;DHT22;36795;45.028;38.968;2023-04-25T00:25:44;13.20;84.40
49385;DHT22;36795;45.028;38.968;2023-04-25T00:28:39;13.20;84.30
49385;DHT22;36795;45.028;38.968;2023-04-25T00:31:32;13.20;83.90
49385;DHT22;36795;45.028;38.968;2023-04-25T00:34:32;13.10;83.80
49385;DHT22;36795;45.028;38.968;2023-04-25T00:37:50;13.10;83.60
49385;DHT22;36795;45.028;38.968;2023-04-25T00:41:01;13.10;83.90
49385;DHT22;36795;45.028;38.968;2023-04-25T00:43:59;13.10;83.80
49385;DHT22;36795;45.028;38.968;2023-04-25T00:50:28;13.10;83.40
49385;DHT22;36795;45.028;38.968;2023-04-25T00:53:26;13.10;83.40
49385;DHT22;36795;45.028;38.968;2023-04-25T00:56:28;13.10;83.30
49385;DHT22;36795;45.028;38.968;2023-04-25T00:59:38;13.20;83.30
49385;DHT22;36795;45.028;38.968;2023-04-25T01:02:45;13.10;83.20
49385;DHT22;36795;45.028;38.968;2023-04-25T01:05:41;13.10;83.10
49385;DHT22;36795;45.028;38.968;2023-04-25T01:08:45;13.10;83.00
49385;DHT22;36795;45.028;38.968;2023-04-25T01:11:41;13.10;82.90
49385;DHT22;36795;45.028;38.968;2023-04-25T01:14:42;13.00;82.60
49385;DHT22;36795;45.028;38.968;2023-04-25T01:17:36;13.00;82.90
49385;DHT22;36795;45.028;38.968;2023-04-25T01:20:39;13.00;82.90
49385;DHT22;36795;45.028;38.968;2023-04-25T01:23:41;12.90;82.80
49385;DHT22;36795;45.028;38.968;2023-04-25T01:26:43;12.90;83.20
49385;DHT22;36795;45.028;38.968;2023-04-25T01:29:55;12.90;83.20
49385;DHT22;36795;45.028;38.968;2023-04-25T01:32:55;12.90;83.00
49385;DHT22;36795;45.028;38.968;2023-04-25T01:35:51;12.90;82.80
49385;DHT22;36795;45.028;38.968;2023-04-25T01:39:05;13.00;82.90
49385;DHT22;36795;45.028;38.968;2023-04-25T01:42:03;13.00;82.80
49385;DHT22;36795;45.028;38.968;2023-04-25T01:45:03;13.00;82.70
49385;DHT22;36795;45.028;38.968;2023-04-25T01:48:00;13.00;82.60
49385;DHT22;36795;45.028;38.968;2023-04-25T01:50:54;13.00;82.80
49385;DHT22;36795;45.028;38.968;2023-04-25T01:53:50;13.00;82.90
49385;DHT22;36795;45.028;38.968;2023-04-25T01:56:56;12.90;83.10
49385;DHT22;36795;45.028;38.968;2023-04-25T02:00:10;12.90;83.20
49385;DHT22;36795;45.028;38.968;2023-04-25T02:03:14;12.90;83.50
49385;DHT22;36795;45.028;38.968;2023-04-25T02:06:07;12.90;83.60
49385;DHT22;36795;45.028;38.968;2023-04-25T02:09:12;12.90;83.70
49385;DHT22;36795;45.028;38.968;2023-04-25T02:12:24;12.90;83.80
49385;DHT22;36795;45.028;38.968;2023-04-25T02:15:22;12.90;83.80
49385;DHT22;36795;45.028;38.968;2023-04-25T02:18:22;12.90;83.90
49385;DHT22;36795;45.028;38.968;2023-04-25T02:21:15;12.90;83.90
49385;DHT22;36795;45.028;38.968;2023-04-25T02:24:14;12.90;83.90
49385;DHT22;36795;45.028;38.968;2023-04-25T02:27:12;12.80;83.70
49385;DHT22;36795;45.028;38.968;2023-04-25T02:30:14;12.90;83.90
49385;DHT22;36795;45.028;38.968;2023-04-25T02:33:10;12.90;83.90
49385;DHT22;36795;45.028;38.968;2023-04-25T02:36:15;12.90;83.90
49385;DHT22;36795;45.028;38.968;2023-04-25T02:39:13;12.90;84.00
49385;DHT22;36795;45.028;38.968;2023-04-25T02:42:20;12.90;83.90
49385;DHT22;36795;45.028;38.968;2023-04-25T02:45:27;12.90;84.00
49385;DHT22;36795;45.028;38.968;2023-04-25T02:48:29;12.90;84.00
49385;DHT22;36795;45.028;38.968;2023-04-25T02:51:25;12.90;84.20
49385;DHT22;36795;45.028;38.968;2023-04-25T02:54:21;12.90;84.10
49385;DHT22;36795;45.028;38.968;2023-04-25T02:57:21;13.00;84.00
49385;DHT22;36795;45.028;38.968;2023-04-25T03:00:25;13.00;83.80
49385;DHT22;36795;45.028;38.968;2023-04-25T03:03:22;13.00;83.70
49385;DHT22;36795;45.028;38.968;2023-04-25T03:06:13;13.00;83.60
49385;DHT22;36795;45.028;38.968;2023-04-25T03:09:10;13.00;83.50
49385;DHT22;36795;45.028;38.968;2023-04-25T03:12:05;13.00;83.60
49385;DHT22;36795;45.028;38.968;2023-04-25T03:14:59;13.00;83.50
49385;DHT22;36795;45.028;38.968;2023-04-25T03:18:05;13.00;83.40
49385;DHT22;36795;45.028;38.968;2023-04-25T03:20:56;13.10;83.40
49385;DHT22;36795;45.028;38.968;2023-04-25T03:23:56;13.10;82.90
49385;DHT22;36795;45.028;38.968;2023-04-25T03:26:53;13.20;82.80
49385;DHT22;36795;45.028;38.968;2023-04-25T03:29:55;13.20;82.60
49385;DHT22;36795;45.028;38.968;2023-04-25T03:32:54;13.30;82.60
49385;DHT22;36795;45.028;38.968;2023-04-25T03:35:46;13.30;82.30
49385;DHT22;36795;45.028;38.968;2023-04-25T03:38:43;13.30;81.90
49385;DHT22;36795;45.028;38.968;2023-04-25T03:41:48;13.30;82.00
49385;DHT22;36795;45.028;38.968;2023-04-25T03:44:55;13.30;82.10
49385;DHT22;36795;45.028;38.968;2023-04-25T03:47:51;13.30;82.10
49385;DHT22;36795;45.028;38.968;2023-04-25T03:50:51;13.30;81.90
49385;DHT22;36795;45.028;38.968;2023-04-25T03:53:49;13.30;82.00
49385;DHT22;36795;45.028;38.968;2023-04-25T03:57:03;13.30;82.20
49385;DHT22;36795;45.028;38.968;2023-04-25T03:59:56;13.30;82.40
49385;DHT22;36795;45.028;38.968;2023-04-25T04:03:05;13.30;82.30
49385;DHT22;36795;45.028;38.968;2023-04-25T04:06:07;13.30;82.50
49385;DHT22;36795;45.028;38.968;2023-04-25T04:09:14;13.40;82.70
49385;DHT22;36795;45.028;38.968;2023-04-25T04:12:20;13.40;83.10
49385;DHT22;36795;45.028;38.968;2023-04-25T04:15:15;13.40;82.50
49385;DHT22;36795;45.028;38.968;2023-04-25T04:18:20;13.50;82.40
49385;DHT22;36795;45.028;38.968;2023-04-25T04:21:21;13.60;82.30
49385;DHT22;36795;45.028;38.968;2023-04-25T04:24:16;13.70;81.60
49385;DHT22;36795;45.028;38.968;2023-04-25T04:27:17;13.80;81.20
49385;DHT22;36795;45.028;38.968;2023-04-25T04:30:16;13.80;81.10
49385;DHT22;36795;45.028;38.968;2023-04-25T04:33:13;13.80;80.70
49385;DHT22;36795;45.028;38.968;2023-04-25T04:36:15;13.80;80.60
49385;DHT22;36795;45.028;38.968;2023-04-25T04:39:13;13.80;80.50
49385;DHT22;36795;45.028;38.968;2023-04-25T04:42:13;13.80;80.20
49385;DHT22;36795;45.028;38.968;2023-04-25T04:45:11;13.80;80.10
49385;DHT22;36795;45.028;38.968;2023-04-25T04:48:17;13.80;79.70
49385;DHT22;36795;45.028;38.968;2023-04-25T04:51:16;13.80;79.80
49385;DHT22;36795;45.028;38.968;2023-04-25T04:54:25;13.80;79.90
49385;DHT22;36795;45.028;38.968;2023-04-25T04:57:32;13.80;80.00
49385;DHT22;36795;45.028;38.968;2023-04-25T05:00:33;13.90;80.00
49385;DHT22;36795;45.028;38.968;2023-04-25T05:03:33;14.00;79.90
49385;DHT22;36795;45.028;38.968;2023-04-25T05:06:40;14.00;79.60
49385;DHT22;36795;45.028;38.968;2023-04-25T05:09:46;14.10;80.20
49385;DHT22;36795;45.028;38.968;2023-04-25T05:12:38;14.10;79.60
49385;DHT22;36795;45.028;38.968;2023-04-25T05:15:57;14.10;79.40
49385;DHT22;36795;45.028;38.968;2023-04-25T05:18:55;14.00;79.30
49385;DHT22;36795;45.028;38.968;2023-04-25T05:21:51;14.20;79.00
49385;DHT22;36795;45.028;38.968;2023-04-25T05:24:48;14.30;78.50
49385;DHT22;36795;45.028;38.968;2023-04-25T05:27:49;14.50;78.00
49385;DHT22;36795;45.028;38.968;2023-04-25T05:30:47;14.60;77.30
49385;DHT22;36795;45.028;38.968;2023-04-25T05:33:46;14.80;76.70
49385;DHT22;36795;45.028;38.968;2023-04-25T05:36:42;14.90;76.30
49385;DHT22;36795;45.028;38.968;2023-04-25T05:39:36;15.00;75.90
49385;DHT22;36795;45.028;38.968;2023-04-25T05:42:30;15.00;75.40
49385;DHT22;36795;45.028;38.968;2023-04-25T05:45:36;14.90;75.40
49385;DHT22;36795;45.028;38.968;2023-04-25T05:48:36;15.10;75.20
49385;DHT22;36795;45.028;38.968;2023-04-25T05:51:34;15.30;73.50
49385;DHT22;36795;45.028;38.968;2023-04-25T05:54:42;15.40;73.30
49385;DHT22;36795;45.028;38.968;2023-04-25T05:57:36;15.50;71.20
49385;DHT22;36795;45.028;38.968;2023-04-25T06:00:44;15.50;70.30
49385;DHT22;36795;45.028;38.968;2023-04-25T06:03:43;15.60;70.50
49385;DHT22;36795;45.028;38.968;2023-04-25T06:06:38;15.80;68.90
49385;DHT22;36795;45.028;38.968;2023-04-25T06:09:30;15.90;68.40
49385;DHT22;36795;45.028;38.968;2023-04-25T06:12:22;16.10;67.80
49385;DHT22;36795;45.028;38.968;2023-04-25T06:15:22;16.50;67.20
49385;DHT22;36795;45.028;38.968;2023-04-25T06:18:21;16.70;65.50
49385;DHT22;36795;45.028;38.968;2023-04-25T06:21:26;17.00;63.50
49385;DHT22;36795;45.028;38.968;2023-04-25T06:24:30;17.10;63.30
49385;DHT22;36795;45.028;38.968;2023-04-25T06:27:33;17.30;62.50
49385;DHT22;36795;45.028;38.968;2023-04-25T06:30:32;17.50;61.80
49385;DHT22;36795;45.028;38.968;2023-04-25T06:33:37;17.50;61.20
49385;DHT22;36795;45.028;38.968;2023-04-25T06:36:38;17.50;61.30
49385;DHT22;36795;45.028;38.968;2023-04-25T06:39:33;17.60;60.10
49385;DHT22;36795;45.028;38.968;2023-04-25T06:42:29;17.60;60.00
49385;DHT22;36795;45.028;38.968;2023-04-25T06:45:38;17.70;59.70
49385;DHT22;36795;45.028;38.968;2023-04-25T06:48:40;17.70;60.10
49385;DHT22;36795;45.028;38.968;2023-04-25T06:51:47;17.90;59.80
49385;DHT22;36795;45.028;38.968;2023-04-25T06:54:47;18.10;59.20
49385;DHT22;36795;45.028;38.968;2023-04-25T06:57:54;18.00;58.80
49385;DHT22;36795;45.028;38.968;2023-04-25T07:01:00;17.90;58.70
49385;DHT22;36795;45.028;38.968;2023-04-25T07:04:03;18.00;59.00
49385;DHT22;36795;45.028;38.968;2023-04-25T07:07:05;18.00;59.00
49385;DHT22;36795;45.028;38.968;2023-04-25T07:10:25;18.20;59.10
49385;DHT22;36795;45.028;38.968;2023-04-25T07:13:29;18.80;57.30
49385;DHT22;36795;45.028;38.968;2023-04-25T07:16:36;19.80;56.20
49385;DHT22;36795;45.028;38.968;2023-04-25T07:19:31;20.40;54.20
49385;DHT22;36795;45.028;38.968;2023-04-25T07:22:34;20.40;53.60
49385;DHT22;36795;45.028;38.968;2023-04-25T07:25:43;20.00;54.00
49385;DHT22;36795;45.028;38.968;2023-04-25T07:29:02;19.80;54.60
49385;DHT22;36795;45.028;38.968;2023-04-25T07:31:55;20.80;53.30
49385;DHT22;36795;45.028;38.968;2023-04-25T07:34:49;20.80;52.20
49385;DHT22;36795;45.028;38.968;2023-04-25T07:37:46;20.40;52.90
49385;DHT22;36795;45.028;38.968;2023-04-25T07:41:02;20.00;53.10
49385;DHT22;36795;45.028;38.968;2023-04-25T07:44:05;20.20;53.00
49385;DHT22;36795;45.028;38.968;2023-04-25T07:47:17;21.30;50.80
49385;DHT22;36795;45.028;38.968;2023-04-25T07:50:27;23.00;48.40
49385;DHT22;36795;45.028;38.968;2023-04-25T07:53:32;24.10;45.20
49385;DHT22;36795;45.028;38.968;2023-04-25T07:56:39;24.20;44.00
49385;DHT22;36795;45.028;38.968;2023-04-25T07:59:54;23.30;44.10
49385;DHT22;36795;45.028;38.968;2023-04-25T08:02:56;22.30;45.50
49385;DHT22;36795;45.028;38.968;2023-04-25T08:06:10;21.60;46.70
49385;DHT22;36795;45.028;38.968;2023-04-25T08:09:12;21.10;47.30
49385;DHT22;36795;45.028;38.968;2023-04-25T08:12:07;20.70;48.90
49385;DHT22;36795;45.028;38.968;2023-04-25T08:15:00;20.20;50.30
49385;DHT22;36795;45.028;38.968;2023-04-25T08:17:58;19.90;50.80
49385;DHT22;36795;45.028;38.968;2023-04-25T08:20:59;19.70;51.10
49385;DHT22;36795;45.028;38.968;2023-04-25T08:24:00;19.80;50.90
49385;DHT22;36795;45.028;38.968;2023-04-25T08:27:06;19.60;51.30
49385;DHT22;36795;45.028;38.968;2023-04-25T08:30:05;19.30;51.50
49385;DHT22;36795;45.028;38.968;2023-04-25T08:33:02;19.40;52.10
49385;DHT22;36795;45.028;38.968;2023-04-25T08:36:05;19.60;51.50
49385;DHT22;36795;45.028;38.968;2023-04-25T08:39:11;19.80;50.30
49385;DHT22;36795;45.028;38.968;2023-04-25T08:42:18;19.50;50.60
49385;DHT22;36795;45.028;38.968;2023-04-25T08:45:22;19.60;50.90
49385;DHT22;36795;45.028;38.968;2023-04-25T08:48:24;19.60;50.80
49385;DHT22;36795;45.028;38.968;2023-04-25T08:51:26;19.70;50.00
49385;DHT22;36795;45.028;38.968;2023-04-25T08:54:31;20.20;49.30
49385;DHT22;36795;45.028;38.968;2023-04-25T08:57:28;21.50;46.50
49385;DHT22;36795;45.028;38.968;2023-04-25T09:00:26;21.90;45.50
49385;DHT22;36795;45.028;38.968;2023-04-25T09:03:19;21.90;44.90
49385;DHT22;36795;45.028;38.968;2023-04-25T09:06:28;22.40;44.50
49385;DHT22;36795;45.028;38.968;2023-04-25T09:09:30;22.20;43.00
49385;DHT22;36795;45.028;38.968;2023-04-25T09:12:37;21.30;44.90
49385;DHT22;36795;45.028;38.968;2023-04-25T09:15:34;21.50;45.00
49385;DHT22;36795;45.028;38.968;2023-04-25T09:18:51;22.10;43.30
49385;DHT22;36795;45.028;38.968;2023-04-25T09:22:03;22.90;41.60
49385;DHT22;36795;45.028;38.968;2023-04-25T09:25:12;23.50;40.60
49385;DHT22;36795;45.028;38.968;2023-04-25T09:28:26;23.60;40.20
49385;DHT22;36795;45.028;38.968;2023-04-25T09:31:31;24.00;39.40
49385;DHT22;36795;45.028;38.968;2023-04-25T09:34:45;24.40;39.10
49385;DHT22;36795;45.028;38.968;2023-04-25T09:37:42;24.90;38.50
49385;DHT22;36795;45.028;38.968;2023-04-25T09:40:52;25.00;37.90
49385;DHT22;36795;45.028;38.968;2023-04-25T09:43:46;25.90;37.70
49385;DHT22;36795;45.028;38.968;2023-04-25T09:46:53;26.00;36.90
49385;DHT22;36795;45.028;38.968;2023-04-25T09:49:52;25.80;36.40
49385;DHT22;36795;45.028;38.968;2023-04-25T09:53:06;24.70;37.60
49385;DHT22;36795;45.028;38.968;2023-04-25T09:56:17;23.40;39.70
49385;DHT22;36795;45.028;38.968;2023-04-25T09:59:13;22.40;40.80
49385;DHT22;36795;45.028;38.968;2023-04-25T10:02:14;21.70;42.10
49385;DHT22;36795;45.028;38.968;2023-04-25T10:05:11;21.30;43.60
49385;DHT22;36795;45.028;38.968;2023-04-25T10:08:08;21.40;43.80
49385;DHT22;36795;45.028;38.968;2023-04-25T10:11:08;21.50;43.50
49385;DHT22;36795;45.028;38.968;2023-04-25T10:14:07;21.90;42.50
49385;DHT22;36795;45.028;38.968;2023-04-25T10:17:03;21.90;41.90
49385;DHT22;36795;45.028;38.968;2023-04-25T10:20:07;21.70;42.60
49385;DHT22;36795;45.028;38.968;2023-04-25T10:23:18;22.00;42.40
49385;DHT22;36795;45.028;38.968;2023-04-25T10:26:11;22.20;41.50
49385;DHT22;36795;45.028;38.968;2023-04-25T10:29:15;22.30;41.80
49385;DHT22;36795;45.028;38.968;2023-04-25T10:32:18;22.60;41.40
49385;DHT22;36795;45.028;38.968;2023-04-25T10:35:16;22.60;41.40
49385;DHT22;36795;45.028;38.968;2023-04-25T10:38:15;22.60;41.60
49385;DHT22;36795;45.028;38.968;2023-04-25T10:41:19;22.50;40.80
49385;DHT22;36795;45.028;38.968;2023-04-25T10:44:14;22.80;41.10
49385;DHT22;36795;45.028;38.968;2023-04-25T10:47:45;23.00;40.90
49385;DHT22;36795;45.028;38.968;2023-04-25T10:50:38;23.70;39.90
49385;DHT22;36795;45.028;38.968;2023-04-25T10:53:39;24.00;39.50
49385;DHT22;36795;45.028;38.968;2023-04-25T10:56:38;23.40;39.10
49385;DHT22;36795;45.028;38.968;2023-04-25T10:59:36;22.50;41.10
49385;DHT22;36795;45.028;38.968;2023-04-25T11:02:40;21.90;42.60
49385;DHT22;36795;45.028;38.968;2023-04-25T11:05:41;22.00;42.90
49385;DHT22;36795;45.028;38.968;2023-04-25T11:08:50;22.60;41.60
49385;DHT22;36795;45.028;38.968;2023-04-25T11:12:11;22.80;41.50
49385;DHT22;36795;45.028;38.968;2023-04-25T11:15:17;22.90;41.30
49385;DHT22;36795;45.028;38.968;2023-04-25T11:18:20;22.80;40.60
49385;DHT22;36795;45.028;38.968;2023-04-25T11:21:14;22.70;41.40
49385;DHT22;36795;45.028;38.968;2023-04-25T11:24:17;23.20;40.80
49385;DHT22;36795;45.028;38.968;2023-04-25T11:27:15;23.50;40.00
49385;DHT22;36795;45.028;38.968;2023-04-25T11:30:17;23.70;39.50
49385;DHT22;36795;45.028;38.968;2023-04-25T11:33:12;24.30;38.20
49385;DHT22;36795;45.028;38.968;2023-04-25T11:36:10;25.00;37.30
49385;DHT22;36795;45.028;38.968;2023-04-25T11:39:05;25.00;36.80
49385;DHT22;36795;45.028;38.968;2023-04-25T11:42:01;24.80;36.80
49385;DHT22;36795;45.028;38.968;2023-04-25T11:44:52;25.40;36.70
49385;DHT22;36795;45.028;38.968;2023-04-25T11:47:58;25.80;35.50
49385;DHT22;36795;45.028;38.968;2023-04-25T11:50:55;26.20;34.80
49385;DHT22;36795;45.028;38.968;2023-04-25T11:53:59;26.80;34.60
49385;DHT22;36795;45.028;38.968;2023-04-25T11:56:56;25.60;35.50
49385;DHT22;36795;45.028;38.968;2023-04-25T11:59:54;24.90;37.10
49385;DHT22;36795;45.028;38.968;2023-04-25T12:03:09;25.10;36.30
49385;DHT22;36795;45.028;38.968;2023-04-25T12:06:18;24.20;37.70
49385;DHT22;36795;45.028;38.968;2023-04-25T12:09:17;25.90;37.00
49385;DHT22;36795;45.028;38.968;2023-04-25T12:12:36;28.00;33.90
49385;DHT22;36795;45.028;38.968;2023-04-25T12:15:48;26.70;34.40
49385;DHT22;36795;45.028;38.968;2023-04-25T12:18:55;25.00;36.40
49385;DHT22;36795;45.028;38.968;2023-04-25T12:21:48;23.50;38.80
49385;DHT22;36795;45.028;38.968;2023-04-25T12:24:46;22.60;40.60
49385;DHT22;36795;45.028;38.968;2023-04-25T12:27:38;22.90;40.70
49385;DHT22;36795;45.028;38.968;2023-04-25T12:31:02;23.30;40.20
49385;DHT22;36795;45.028;38.968;2023-04-25T12:34:02;24.10;39.20
49385;DHT22;36795;45.028;38.968;2023-04-25T12:37:11;24.30;39.30
49385;DHT22;36795;45.028;38.968;2023-04-25T12:40:05;24.40;38.60
49385;DHT22;36795;45.028;38.968;2023-04-25T12:43:04;24.60;38.20
49385;DHT22;36795;45.028;38.968;2023-04-25T12:46:08;24.50;38.30
49385;DHT22;36795;45.028;38.968;2023-04-25T12:49:04;24.50;38.40
49385;DHT22;36795;45.028;38.968;2023-04-25T12:52:07;24.60;38.10
49385;DHT22;36795;45.028;38.968;2023-04-25T12:55:03;24.50;38.40
49385;DHT22;36795;45.028;38.968;2023-04-25T12:58:02;24.00;38.70
49385;DHT22;36795;45.028;38.968;2023-04-25T13:01:00;23.80;39.10
49385;DHT22;36795;45.028;38.968;2023-04-25T13:03:58;23.80;39.40
49385;DHT22;36795;45.028;38.968;2023-04-25T13:06:56;23.90;38.90
49385;DHT22;36795;45.028;38.968;2023-04-25T13:09:56;23.50;39.70
49385;DHT22;36795;45.028;38.968;2023-04-25T13:12:55;23.10;40.00
49385;DHT22;36795;45.028;38.968;2023-04-25T13:15:49;23.20;40.00
49385;DHT22;36795;45.028;38.968;2023-04-25T13:18:50;23.30;40.00
49385;DHT22;36795;45.028;38.968;2023-04-25T13:21:50;23.10;40.10
49385;DHT22;36795;45.028;38.968;2023-04-25T13:25:05;23.50;39.70
49385;DHT22;36795;45.028;38.968;2023-04-25T13:28:01;24.10;38.80
49385;DHT22;36795;45.028;38.968;2023-04-25T13:31:10;25.00;37.60
49385;DHT22;36795;45.028;38.968;2023-04-25T13:34:11;25.60;36.80
49385;DHT22;36795;45.028;38.968;2023-04-25T13:37:07;26.40;35.80
49385;DHT22;36795;45.028;38.968;2023-04-25T13:40:11;26.60;34.90
49385;DHT22;36795;45.028;38.968;2023-04-25T13:43:06;26.60;35.00
49385;DHT22;36795;45.028;38.968;2023-04-25T13:46:02;26.70;34.60
49385;DHT22;36795;45.028;38.968;2023-04-25T13:49:08;26.70;34.70
49385;DHT22;36795;45.028;38.968;2023-04-25T13:52:13;27.20;34.70
49385;DHT22;36795;45.028;38.968;2023-04-25T13:55:10;28.10;33.90
49385;DHT22;36795;45.028;38.968;2023-04-25T13:58:32;28.50;32.90
49385;DHT22;36795;45.028;38.968;2023-04-25T14:01:48;28.30;32.90
49385;DHT22;36795;45.028;38.968;2023-04-25T14:04:53;27.80;33.30
49385;DHT22;36795;45.028;38.968;2023-04-25T14:07:50;27.90;33.40
49385;DHT22;36795;45.028;38.968;2023-04-25T14:11:00;28.00;33.60
49385;DHT22;36795;45.028;38.968;2023-04-25T14:13:59;28.00;33.30
49385;DHT22;36795;45.028;38.968;2023-04-25T14:17:06;27.90;33.30
49385;DHT22;36795;45.028;38.968;2023-04-25T14:20:13;27.50;33.80
49385;DHT22;36795;45.028;38.968;2023-04-25T14:23:09;26.90;34.30
49385;DHT22;36795;45.028;38.968;2023-04-25T14:25:58;26.60;34.80
49385;DHT22;36795;45.028;38.968;2023-04-25T14:28:57;26.30;34.90
49385;DHT22;36795;45.028;38.968;2023-04-25T14:31:47;26.30;35.10
49385;DHT22;36795;45.028;38.968;2023-04-25T14:35:00;25.90;35.30
49385;DHT22;36795;45.028;38.968;2023-04-25T14:37:51;24.70;37.10
49385;DHT22;36795;45.028;38.968;2023-04-25T14:40:44;23.40;39.00
49385;DHT22;36795;45.028;38.968;2023-04-25T14:43:52;23.10;39.90
49385;DHT22;36795;45.028;38.968;2023-04-25T14:46:57;23.70;39.10
49385;DHT22;36795;45.028;38.968;2023-04-25T14:49:54;24.00;38.60
49385;DHT22;36795;45.028;38.968;2023-04-25T14:52:59;23.90;38.60
49385;DHT22;36795;45.028;38.968;2023-04-25T14:55:50;23.40;38.90
49385;DHT22;36795;45.028;38.968;2023-04-25T14:58:59;22.30;40.70
49385;DHT22;36795;45.028;38.968;2023-04-25T15:01:59;21.50;42.30
49385;DHT22;36795;45.028;38.968;2023-04-25T15:04:53;21.50;42.50
49385;DHT22;36795;45.028;38.968;2023-04-25T15:07:52;21.70;42.30
49385;DHT22;36795;45.028;38.968;2023-04-25T15:10:53;21.90;42.00
49385;DHT22;36795;45.028;38.968;2023-04-25T15:13:49;21.80;42.20
49385;DHT22;36795;45.028;38.968;2023-04-25T15:16:42;21.60;42.70
49385;DHT22;36795;45.028;38.968;2023-04-25T15:20:02;21.50;42.80
49385;DHT22;36795;45.028;38.968;2023-04-25T15:22:56;21.30;43.10
49385;DHT22;36795;45.028;38.968;2023-04-25T15:25:52;21.00;43.60
49385;DHT22;36795;45.028;38.968;2023-04-25T15:28:53;20.70;44.20
49385;DHT22;36795;45.028;38.968;2023-04-25T15:31:48;20.20;45.50
49385;DHT22;36795;45.028;38.968;2023-04-25T15:34:48;19.80;46.30
49385;DHT22;36795;45.028;38.968;2023-04-25T15:37:44;19.40;47.30
49385;DHT22;36795;45.028;38.968;2023-04-25T15:40:38;19.10;48.10
49385;DHT22;36795;45.028;38.968;2023-04-25T15:43:40;18.80;48.70
49385;DHT22;36795;45.028;38.968;2023-04-25T15:50:21;18.30;49.60
49385;DHT22;36795;45.028;38.968;2023-04-25T15:53:35;18.10;50.30
49385;DHT22;36795;45.028;38.968;2023-04-25T15:56:28;17.90;50.80
49385;DHT22;36795;45.028;38.968;2023-04-25T15:59:30;17.80;51.10
49385;DHT22;36795;45.028;38.968;2023-04-25T16:02:20;17.60;51.50
49385;DHT22;36795;45.028;38.968;2023-04-25T16:05:18;17.50;51.50
49385;DHT22;36795;45.028;38.968;2023-04-25T16:08:16;17.40;51.70
49385;DHT22;36795;45.028;38.968;2023-04-25T16:11:15;17.30;51.90
49385;DHT22;36795;45.028;38.968;2023-04-25T16:14:16;17.20;52.10
49385;DHT22;36795;45.028;38.968;2023-04-25T16:17:24;17.20;52.30
49385;DHT22;36795;45.028;38.968;2023-04-25T16:20:19;17.10;52.60
49385;DHT22;36795;45.028;38.968;2023-04-25T16:23:17;17.00;52.80
49385;DHT22;36795;45.028;38.968;2023-04-25T16:26:29;16.90;53.00
49385;DHT22;36795;45.028;38.968;2023-04-25T16:29:54;16.80;53.40
49385;DHT22;36795;45.028;38.968;2023-04-25T16:33:06;16.70;53.50
49385;DHT22;36795;45.028;38.968;2023-04-25T16:36:14;16.60;53.70
49385;DHT22;36795;45.028;38.968;2023-04-25T16:39:13;16.60;53.90
49385;DHT22;36795;45.028;38.968;2023-04-25T16:42:12;16.50;53.90
49385;DHT22;36795;45.028;38.968;2023-04-25T16:45:29;16.50;54.10
49385;DHT22;36795;45.028;38.968;2023-04-25T16:48:44;16.50;54.40
49385;DHT22;36795;45.028;38.968;2023-04-25T16:51:39;16.40;54.60
49385;DHT22;36795;45.028;38.968;2023-04-25T16:54:34;16.30;54.90
49385;DHT22;36795;45.028;38.968;2023-04-25T16:57:39;16.30;55.20
49385;DHT22;36795;45.028;38.968;2023-04-25T17:00:34;16.20;55.50
49385;DHT22;36795;45.028;38.968;2023-04-25T17:06:40;16.10;55.90
49385;DHT22;36795;45.028;38.968;2023-04-25T17:09:42;16.10;56.00
49385;DHT22;36795;45.028;38.968;2023-04-25T17:12:41;16.00;56.20
49385;DHT22;36795;45.028;38.968;2023-04-25T17:15:34;16.00;56.40
49385;DHT22;36795;45.028;38.968;2023-04-25T17:18:32;15.90;56.20
49385;DHT22;36795;45.028;38.968;2023-04-25T17:21:38;15.90;56.20
49385;DHT22;36795;45.028;38.968;2023-04-25T17:24:47;15.90;56.30
49385;DHT22;36795;45.028;38.968;2023-04-25T17:27:54;15.90;56.40
49385;DHT22;36795;45.028;38.968;2023-04-25T17:30:55;15.80;56.60
49385;DHT22;36795;45.028;38.968;2023-04-25T17:33:53;15.80;56.80
49385;DHT22;36795;45.028;38.968;2023-04-25T17:36:47;15.80;57.00
49385;DHT22;36795;45.028;38.968;2023-04-25T17:39:45;15.70;57.40
49385;DHT22;36795;45.028;38.968;2023-04-25T17:42:45;15.70;57.60
49385;DHT22;36795;45.028;38.968;2023-04-25T17:45:41;15.70;57.90
49385;DHT22;36795;45.028;38.968;2023-04-25T17:48:39;15.60;58.40
49385;DHT22;36795;45.028;38.968;2023-04-25T17:51:32;15.60;58.80
49385;DHT22;36795;45.028;38.968;2023-04-25T17:54:47;15.50;59.00
49385;DHT22;36795;45.028;38.968;2023-04-25T17:57:43;15.50;59.40
49385;DHT22;36795;45.028;38.968;2023-04-25T18:00:37;15.50;59.60
49385;DHT22;36795;45.028;38.968;2023-04-25T18:03:38;15.40;59.90
49385;DHT22;36795;45.028;38.968;2023-04-25T18:06:48;15.30;60.90
49385;DHT22;36795;45.028;38.968;2023-04-25T18:09:43;15.20;60.80
49385;DHT22;36795;45.028;38.968;2023-04-25T18:12:50;15.10;61.30
49385;DHT22;36795;45.028;38.968;2023-04-25T18:15:48;15.00;61.40
49385;DHT22;36795;45.028;38.968;2023-04-25T18:18:44;15.10;61.60
49385;DHT22;36795;45.028;38.968;2023-04-25T18:22:00;15.00;61.70
49385;DHT22;36795;45.028;38.968;2023-04-25T18:25:00;14.90;62.00
49385;DHT22;36795;45.028;38.968;2023-04-25T18:28:00;14.90;62.20
49385;DHT22;36795;45.028;38.968;2023-04-25T18:31:04;14.90;62.70
49385;DHT22;36795;45.028;38.968;2023-04-25T18:34:17;14.80;62.80
49385;DHT22;36795;45.028;38.968;2023-04-25T18:37:14;14.70;62.90
49385;DHT22;36795;45.028;38.968;2023-04-25T18:40:20;14.60;63.10
49385;DHT22;36795;45.028;38.968;2023-04-25T18:43:11;14.60;63.20
49385;DHT22;36795;45.028;38.968;2023-04-25T18:46:06;14.60;63.20
49385;DHT22;36795;45.028;38.968;2023-04-25T18:49:03;14.50;63.60
49385;DHT22;36795;45.028;38.968;2023-04-25T18:52:06;14.50;63.60
49385;DHT22;36795;45.028;38.968;2023-04-25T18:55:07;14.50;63.70
49385;DHT22;36795;45.028;38.968;2023-04-25T18:58:17;14.50;64.00